Time;durP1;ratioP1;P1;durP2;ratioP2;P2;SDS_P1;SDS_P2;PMS_P1;PMS_P2;Temp;Humidity;BMP_temperature;BMP_pressure;BME280_temperature;BME280_humidity;BME280_pressure;Samples;Min_cycle;Max_cycle;Signal;HPM_P1;HPM_P2
2023/09/10 00:02:20;;;;;;;40.17;25.27;;;18.60;99.90;;;;;;5044541;28;20041;-74
2023/09/10 00:04:45;;;;;;;39.63;24.73;;;18.60;99.90;;;;;;5043265;28;20190;-73
2023/09/10 00:07:11;;;;;;;40.47;23.95;;;18.60;99.90;;;;;;5043456;28;20037;-74
2023/09/10 00:09:38;;;;;;;39.85;25.08;;;18.60;99.90;;;;;;5043037;28;20053;-74
2023/09/10 00:12:04;;;;;;;36.38;24.25;;;18.60;99.90;;;;;;5044891;28;20713;-74
2023/09/10 00:14:30;;;;;;;36.33;22.92;;;18.50;99.90;;;;;;5042717;28;20041;-73
2023/09/10 00:16:55;;;;;;;40.90;24.20;;;18.50;99.90;;;;;;5044845;28;20041;-73
2023/09/10 00:19:21;;;;;;;38.38;24.00;;;18.50;99.90;;;;;;5044792;28;20102;-73
2023/09/10 00:21:47;;;;;;;44.25;24.83;;;18.50;99.90;;;;;;5044642;28;20052;-73
2023/09/10 00:24:13;;;;;;;41.85;25.67;;;18.50;99.90;;;;;;5042411;28;20033;-72
2023/09/10 00:26:38;;;;;;;42.55;26.58;;;18.50;99.90;;;;;;5042248;28;20043;-75
2023/09/10 00:29:04;;;;;;;41.97;26.20;;;18.50;99.90;;;;;;5045020;28;20052;-73
2023/09/10 00:31:33;;;;;;;40.13;24.90;;;18.50;99.90;;;;;;5043155;28;20037;-73
2023/09/10 00:33:58;;;;;;;42.08;26.83;;;18.50;99.90;;;;;;5043970;28;20494;-73
2023/09/10 00:36:24;;;;;;;40.38;25.17;;;18.50;99.90;;;;;;5042561;28;20048;-73
2023/09/10 00:38:51;;;;;;;43.30;26.48;;;18.50;99.90;;;;;;5042362;28;20410;-75
2023/09/10 00:41:16;;;;;;;39.97;25.10;;;18.50;99.90;;;;;;5043479;28;20079;-73
2023/09/10 00:43:42;;;;;;;43.03;26.15;;;18.40;99.90;;;;;;5043396;28;20083;-73
2023/09/10 00:46:07;;;;;;;42.22;25.63;;;18.50;99.90;;;;;;5043750;28;20036;-73
2023/09/10 00:48:33;;;;;;;39.55;23.90;;;18.40;99.90;;;;;;5043487;28;20479;-73
2023/09/10 00:50:59;;;;;;;37.85;24.05;;;18.40;99.90;;;;;;5043648;28;20412;-73
2023/09/10 00:53:26;;;;;;;38.95;24.35;;;18.40;99.90;;;;;;5036373;28;20036;-74
2023/09/10 00:55:52;;;;;;;36.22;24.33;;;18.40;99.90;;;;;;5043027;28;20048;-73
2023/09/10 00:58:18;;;;;;;40.60;26.20;;;18.40;99.90;;;;;;5043568;28;20120;-73
2023/09/10 01:00:46;;;;;;;49.58;26.35;;;18.40;99.90;;;;;;5042158;28;20174;-72
2023/09/10 01:03:13;;;;;;;42.85;25.38;;;18.40;99.90;;;;;;5042231;28;20074;-73
2023/09/10 01:05:39;;;;;;;37.03;24.02;;;18.40;99.90;;;;;;5042040;28;20060;-74
2023/09/10 01:08:05;;;;;;;38.72;24.30;;;18.40;99.90;;;;;;5043641;28;20767;-73
2023/09/10 01:10:43;;;;;;;40.92;24.65;;;18.30;99.90;;;;;;5041978;28;20095;-73
2023/09/10 01:13:09;;;;;;;41.40;25.40;;;18.30;99.90;;;;;;5042099;28;20060;-75
2023/09/10 01:15:36;;;;;;;38.10;25.73;;;18.40;99.90;;;;;;5042382;28;20045;-73
2023/09/10 01:18:25;;;;;;;38.00;24.83;;;18.30;99.90;;;;;;5043687;28;20546;-73
2023/09/10 01:21:31;;;;;;;36.88;22.80;;;18.30;99.90;;;;;;5041730;28;20045;-73
2023/09/10 01:23:59;;;;;;;38.85;22.92;;;18.20;99.90;;;;;;5042443;28;20045;-74
2023/09/10 01:26:25;;;;;;;34.42;21.65;;;18.20;99.90;;;;;;5041904;28;20107;-73
2023/09/10 01:28:51;;;;;;;39.90;23.50;;;18.20;99.90;;;;;;5043435;28;20080;-73
2023/09/10 01:31:17;;;;;;;39.03;23.45;;;18.20;99.90;;;;;;5042883;28;20043;-73
2023/09/10 01:33:51;;;;;;;36.97;23.60;;;18.20;99.90;;;;;;5043437;28;20041;-72
2023/09/10 01:36:29;;;;;;;38.17;23.15;;;18.20;99.90;;;;;;5042833;28;20060;-73
2023/09/10 01:39:07;;;;;;;33.28;22.00;;;18.10;99.90;;;;;;5040669;28;20562;-73
2023/09/10 01:41:35;;;;;;;35.90;22.52;;;18.10;99.90;;;;;;5042995;28;20044;-72
2023/09/10 01:44:01;;;;;;;34.95;21.17;;;18.10;99.90;;;;;;5042907;28;20045;-72
2023/09/10 01:46:27;;;;;;;39.08;24.30;;;18.10;99.90;;;;;;5042843;28;20037;-73
2023/09/10 01:48:54;;;;;;;31.40;20.75;;;18.10;99.90;;;;;;5043214;28;20118;-73
2023/09/10 01:51:20;;;;;;;33.25;22.75;;;18.10;99.90;;;;;;5042578;28;20033;-73
2023/09/10 01:53:46;;;;;;;32.28;21.45;;;18.10;99.90;;;;;;5042114;28;20044;-73
2023/09/10 01:56:12;;;;;;;32.17;20.58;;;18.10;99.90;;;;;;5042699;28;20080;-72
2023/09/10 01:58:38;;;;;;;31.85;21.48;;;18.10;99.90;;;;;;5043658;28;20072;-73
2023/09/10 02:01:06;;;;;;;31.27;20.23;;;18.00;99.90;;;;;;5043385;28;20045;-73
2023/09/10 02:03:31;;;;;;;29.75;20.33;;;18.00;99.90;;;;;;5041521;28;20041;-73
2023/09/10 02:05:58;;;;;;;32.08;20.77;;;18.00;99.90;;;;;;5042385;28;20562;-73
2023/09/10 02:08:24;;;;;;;31.63;19.65;;;18.00;99.90;;;;;;5042306;28;20064;-73
2023/09/10 02:10:51;;;;;;;27.25;19.63;;;18.00;99.90;;;;;;5041660;28;20068;-73
2023/09/10 02:13:16;;;;;;;29.20;20.38;;;18.00;99.90;;;;;;5041244;28;20507;-73
2023/09/10 02:15:42;;;;;;;28.42;19.00;;;17.90;99.90;;;;;;5040613;28;20135;-73
2023/09/10 02:18:08;;;;;;;27.50;19.10;;;17.90;99.90;;;;;;5043523;28;20458;-72
2023/09/10 02:20:36;;;;;;;25.30;17.92;;;17.90;99.90;;;;;;5043149;28;20045;-73
2023/09/10 02:23:02;;;;;;;23.65;17.70;;;17.90;99.90;;;;;;5042540;28;20124;-73
2023/09/10 02:25:28;;;;;;;23.10;18.13;;;17.90;99.90;;;;;;5040101;28;20576;-73
2023/09/10 02:27:53;;;;;;;26.25;18.38;;;17.90;99.90;;;;;;5042943;28;20067;-73
2023/09/10 02:30:19;;;;;;;26.75;18.25;;;17.80;99.90;;;;;;5041887;28;20496;-73
2023/09/10 02:32:45;;;;;;;26.58;17.80;;;17.80;99.90;;;;;;5042409;28;20083;-73
2023/09/10 02:35:10;;;;;;;22.95;17.40;;;17.80;99.90;;;;;;5042246;28;20515;-73
2023/09/10 02:37:36;;;;;;;25.52;17.65;;;17.70;99.90;;;;;;5042616;28;20075;-73
2023/09/10 02:40:02;;;;;;;25.00;17.80;;;17.70;99.90;;;;;;5040085;28;20404;-73
2023/09/10 02:42:27;;;;;;;25.23;17.55;;;17.70;99.90;;;;;;5042241;28;20044;-73
2023/09/10 02:44:53;;;;;;;24.55;17.00;;;17.60;99.90;;;;;;5042193;28;20041;-73
2023/09/10 02:47:18;;;;;;;25.25;17.83;;;17.60;99.90;;;;;;5040718;28;20048;-73
2023/09/10 02:49:44;;;;;;;22.15;17.98;;;17.60;99.90;;;;;;5046307;28;20052;-73
2023/09/10 02:52:10;;;;;;;23.45;16.73;;;17.60;99.90;;;;;;5044531;28;20053;-73
2023/09/10 02:54:36;;;;;;;26.38;17.73;;;17.60;99.90;;;;;;5027506;28;20099;-73
2023/09/10 02:57:02;;;;;;;29.60;17.17;;;17.60;99.90;;;;;;5046119;28;20037;-73
2023/09/10 02:59:28;;;;;;;21.60;16.85;;;17.60;99.90;;;;;;5045649;28;20628;-73
2023/09/10 03:01:54;;;;;;;22.75;16.80;;;17.60;99.90;;;;;;5045630;28;20124;-73
2023/09/10 03:04:20;;;;;;;21.65;15.57;;;17.60;99.90;;;;;;5045825;28;20479;-73
2023/09/10 03:06:47;;;;;;;22.00;16.80;;;17.60;99.90;;;;;;5044141;28;20081;-73
2023/09/10 03:09:14;;;;;;;20.10;15.77;;;17.60;99.90;;;;;;5044403;28;20075;-73
2023/09/10 03:11:41;;;;;;;22.48;16.55;;;17.50;99.90;;;;;;5045805;28;20538;-74
2023/09/10 03:14:08;;;;;;;24.15;16.27;;;17.50;99.90;;;;;;5045230;28;20051;-75
2023/09/10 03:16:34;;;;;;;24.40;16.38;;;17.50;99.90;;;;;;5045355;28;20029;-75
2023/09/10 03:19:00;;;;;;;22.30;16.45;;;17.50;99.90;;;;;;5044594;28;20044;-74
2023/09/10 03:21:26;;;;;;;21.85;16.52;;;17.50;99.90;;;;;;5045846;28;20067;-74
2023/09/10 03:23:52;;;;;;;19.88;13.98;;;17.50;99.90;;;;;;5044442;28;20498;-75
2023/09/10 03:26:18;;;;;;;25.27;16.40;;;17.50;99.90;;;;;;5045270;28;20510;-72
2023/09/10 03:28:44;;;;;;;22.95;16.38;;;17.50;99.90;;;;;;5045468;28;20045;-72
2023/09/10 03:31:09;;;;;;;22.50;15.98;;;17.40;99.90;;;;;;5044943;28;20083;-72
2023/09/10 03:33:35;;;;;;;22.08;15.70;;;17.50;99.90;;;;;;5043905;28;20049;-72
2023/09/10 03:36:01;;;;;;;19.92;15.20;;;17.40;99.90;;;;;;5044995;28;20125;-72
2023/09/10 03:38:26;;;;;;;23.27;15.27;;;17.40;99.90;;;;;;5044098;28;20044;-72
2023/09/10 03:40:52;;;;;;;20.45;15.30;;;17.40;99.90;;;;;;5045399;28;20075;-72
2023/09/10 03:43:18;;;;;;;22.63;16.02;;;17.40;99.90;;;;;;5043907;28;20033;-71
2023/09/10 03:45:43;;;;;;;23.15;16.17;;;17.40;99.90;;;;;;5045036;28;20171;-72
2023/09/10 03:48:09;;;;;;;23.33;16.30;;;17.40;99.90;;;;;;5044283;28;20041;-72
2023/09/10 03:50:35;;;;;;;26.48;17.90;;;17.40;99.90;;;;;;5045792;28;20084;-71
2023/09/10 03:53:00;;;;;;;25.23;17.30;;;17.40;99.90;;;;;;5060247;28;20119;-72
2023/09/10 03:55:26;;;;;;;22.38;16.15;;;17.30;99.90;;;;;;5043571;28;20063;-73
2023/09/10 03:57:52;;;;;;;23.60;16.25;;;17.40;99.90;;;;;;5045197;28;20037;-72
2023/09/10 04:00:19;;;;;;;22.30;15.48;;;17.40;99.90;;;;;;5043145;28;20097;-72
2023/09/10 04:02:45;;;;;;;24.90;16.95;;;17.30;99.90;;;;;;5044320;28;20056;-74
2023/09/10 04:05:11;;;;;;;27.13;17.50;;;17.30;99.90;;;;;;5038245;28;20562;-74
2023/09/10 04:07:37;;;;;;;26.77;17.02;;;17.30;99.90;;;;;;5043496;28;20052;-74
2023/09/10 04:10:04;;;;;;;23.75;16.58;;;17.30;99.90;;;;;;5044374;28;20041;-74
2023/09/10 04:12:30;;;;;;;28.77;17.77;;;17.30;99.90;;;;;;5044088;28;20056;-74
2023/09/10 04:14:55;;;;;;;26.70;17.50;;;17.30;99.90;;;;;;5044819;28;20392;-74
2023/09/10 04:17:21;;;;;;;29.40;18.27;;;17.30;99.90;;;;;;5044112;28;20033;-75
2023/09/10 04:19:46;;;;;;;25.55;17.98;;;17.30;99.90;;;;;;5044321;28;20443;-74
2023/09/10 04:22:14;;;;;;;29.73;18.77;;;17.30;99.90;;;;;;5043963;28;20147;-74
2023/09/10 04:24:39;;;;;;;25.48;17.48;;;17.30;99.90;;;;;;5042326;28;20048;-74
2023/09/10 04:27:05;;;;;;;29.25;17.65;;;17.30;99.90;;;;;;5044482;28;20037;-74
2023/09/10 04:29:31;;;;;;;27.50;18.05;;;17.30;99.90;;;;;;5044191;28;20036;-74
2023/09/10 04:31:57;;;;;;;28.58;18.42;;;17.30;99.90;;;;;;5042826;28;20084;-74
2023/09/10 04:34:22;;;;;;;27.63;16.67;;;17.30;99.90;;;;;;5043400;28;20048;-75
2023/09/10 04:36:48;;;;;;;28.08;17.63;;;17.30;99.90;;;;;;5044013;28;20051;-74
2023/09/10 04:39:13;;;;;;;26.85;17.98;;;17.30;99.90;;;;;;5043174;28;20048;-74
2023/09/10 04:41:39;;;;;;;28.63;17.77;;;17.30;99.90;;;;;;5044184;28;20043;-75
2023/09/10 04:44:05;;;;;;;31.70;19.08;;;17.30;99.90;;;;;;5044283;28;20554;-74
2023/09/10 04:46:31;;;;;;;25.63;16.13;;;17.30;99.90;;;;;;5043814;28;20050;-74
2023/09/10 04:49:00;;;;;;;24.25;17.00;;;17.30;99.90;;;;;;5058918;28;20072;-74
2023/09/10 04:51:26;;;;;;;25.00;16.88;;;17.30;99.90;;;;;;5042164;28;20048;-74
2023/09/10 04:53:51;;;;;;;26.55;17.90;;;17.30;99.90;;;;;;5043011;28;20033;-74
2023/09/10 04:56:17;;;;;;;30.02;19.08;;;17.30;99.90;;;;;;5043941;28;20112;-73
2023/09/10 04:58:43;;;;;;;30.67;19.23;;;17.20;99.90;;;;;;5043253;28;20510;-73
2023/09/10 05:01:09;;;;;;;26.77;17.60;;;17.20;99.90;;;;;;5043111;28;20043;-75
2023/09/10 05:03:35;;;;;;;28.52;17.33;;;17.20;99.90;;;;;;5042368;28;20045;-74
2023/09/10 05:06:02;;;;;;;27.02;17.52;;;17.30;99.90;;;;;;5043303;28;20036;-74
2023/09/10 05:08:28;;;;;;;35.15;19.95;;;17.30;99.90;;;;;;5041108;28;20605;-75
2023/09/10 05:10:55;;;;;;;28.42;18.25;;;17.20;99.90;;;;;;5043269;28;20045;-73
2023/09/10 05:13:20;;;;;;;28.90;18.55;;;17.30;99.90;;;;;;5043123;28;20095;-74
2023/09/10 05:15:47;;;;;;;28.40;18.75;;;17.30;99.90;;;;;;5042173;28;20044;-73
2023/09/10 05:18:13;;;;;;;30.73;17.92;;;17.20;99.90;;;;;;5042578;28;20044;-74
2023/09/10 05:20:38;;;;;;;30.95;19.63;;;17.30;99.90;;;;;;5025707;28;20045;-76
2023/09/10 05:23:04;;;;;;;32.33;19.15;;;17.30;99.90;;;;;;5041757;28;20045;-74
2023/09/10 05:25:30;;;;;;;29.70;18.58;;;17.30;99.90;;;;;;5043368;28;20037;-74
2023/09/10 05:27:56;;;;;;;29.27;19.23;;;17.30;99.90;;;;;;5043568;28;20044;-74
2023/09/10 05:30:22;;;;;;;35.25;19.45;;;17.30;99.90;;;;;;5043067;28;20040;-74
2023/09/10 05:32:48;;;;;;;31.45;18.85;;;17.20;99.90;;;;;;5043025;28;20498;-75
2023/09/10 05:35:13;;;;;;;28.60;19.10;;;17.30;99.90;;;;;;5043120;28;20134;-74
2023/09/10 05:37:39;;;;;;;32.15;19.48;;;17.30;99.90;;;;;;5043218;28;20527;-75
2023/09/10 05:40:05;;;;;;;29.23;18.85;;;17.30;99.90;;;;;;5042087;28;20395;-73
2023/09/10 05:42:31;;;;;;;30.55;18.38;;;17.30;99.90;;;;;;5043184;28;20041;-74
2023/09/10 05:44:57;;;;;;;34.92;19.58;;;17.30;99.90;;;;;;5042778;28;20045;-74
2023/09/10 05:47:23;;;;;;;29.10;19.15;;;17.30;99.90;;;;;;5042777;28;20059;-73
2023/09/10 05:49:51;;;;;;;35.97;20.35;;;17.30;99.90;;;;;;5041340;28;20047;-75
2023/09/10 05:52:17;;;;;;;30.73;18.27;;;17.30;99.90;;;;;;5042750;28;20043;-74
2023/09/10 05:54:43;;;;;;;30.27;18.85;;;17.30;99.90;;;;;;5042139;28;20041;-74
2023/09/10 05:57:08;;;;;;;33.85;20.67;;;17.40;99.90;;;;;;5041806;28;20045;-76
2023/09/10 05:59:34;;;;;;;30.08;18.20;;;17.40;99.90;;;;;;5043286;28;20052;-73
2023/09/10 06:01:59;;;;;;;31.83;20.27;;;17.40;99.90;;;;;;5042423;28;20102;-74
2023/09/10 06:04:27;;;;;;;37.05;20.83;;;17.40;99.90;;;;;;5041991;28;20041;-73
2023/09/10 06:06:53;;;;;;;35.60;21.60;;;17.40;99.90;;;;;;5042627;28;20105;-74
2023/09/10 06:09:19;;;;;;;35.97;21.73;;;17.50;99.90;;;;;;5041094;28;20511;-74
2023/09/10 06:11:44;;;;;;;34.97;20.67;;;17.50;99.90;;;;;;5041459;28;20049;-74
2023/09/10 06:14:10;;;;;;;35.45;20.50;;;17.50;99.90;;;;;;5042507;28;20478;-74
2023/09/10 06:16:35;;;;;;;37.55;21.73;;;17.50;99.90;;;;;;5042723;28;20072;-74
2023/09/10 06:19:01;;;;;;;37.80;21.58;;;17.60;99.90;;;;;;5042810;28;20407;-74
2023/09/10 06:21:28;;;;;;;39.35;21.17;;;17.60;99.90;;;;;;5041532;28;20044;-74
2023/09/10 06:23:54;;;;;;;35.30;20.95;;;17.60;99.90;;;;;;5059125;28;20055;-74
2023/09/10 06:26:20;;;;;;;35.97;21.00;;;17.70;99.90;;;;;;5046723;28;20102;-73
2023/09/10 06:28:45;;;;;;;40.55;21.73;;;17.70;99.90;;;;;;5045493;28;20095;-74
2023/09/10 06:31:11;;;;;;;40.35;23.48;;;17.70;99.90;;;;;;5046240;28;20068;-74
2023/09/10 06:33:36;;;;;;;37.78;24.00;;;17.80;99.90;;;;;;5045217;28;20045;-73
2023/09/10 06:36:02;;;;;;;43.03;22.10;;;17.80;99.90;;;;;;5046146;28;20140;-73
2023/09/10 06:38:31;;;;;;;39.80;22.40;;;17.80;99.90;;;;;;5040924;28;20044;-74
2023/09/10 06:40:56;;;;;;;38.28;20.88;;;17.90;99.90;;;;;;5030014;28;20268;-74
2023/09/10 06:43:22;;;;;;;35.80;22.15;;;17.90;99.90;;;;;;5045939;28;20551;-74
2023/09/10 06:45:50;;;;;;;37.63;23.17;;;17.90;99.90;;;;;;5043052;28;20244;-74
2023/09/10 06:48:16;;;;;;;36.85;22.23;;;18.00;99.90;;;;;;5034907;28;20041;-74
2023/09/10 06:50:42;;;;;;;38.53;22.73;;;18.00;99.90;;;;;;5044632;28;20309;-74
2023/09/10 06:53:07;;;;;;;38.95;22.08;;;18.00;99.90;;;;;;5045711;28;20132;-74
2023/09/10 06:55:33;;;;;;;39.78;22.52;;;18.00;99.90;;;;;;5046007;28;20115;-75
2023/09/10 06:57:59;;;;;;;37.95;21.83;;;18.10;99.90;;;;;;5045603;28;20509;-74
2023/09/10 07:00:24;;;;;;;38.30;22.90;;;18.20;99.90;;;;;;5045530;28;20403;-75
2023/09/10 07:02:50;;;;;;;40.75;24.75;;;18.20;99.90;;;;;;5044885;28;20514;-74
2023/09/10 07:05:15;;;;;;;40.05;23.10;;;18.20;99.90;;;;;;5042377;28;20483;-74
2023/09/10 07:07:41;;;;;;;40.10;23.23;;;18.20;99.90;;;;;;5027596;28;20499;-75
2023/09/10 07:10:07;;;;;;;40.78;23.15;;;18.20;99.90;;;;;;5043331;28;20044;-74
2023/09/10 07:12:33;;;;;;;40.22;25.50;;;18.30;99.90;;;;;;5045118;28;20049;-75
2023/09/10 07:14:58;;;;;;;39.75;22.77;;;18.30;99.90;;;;;;5043074;28;20518;-73
2023/09/10 07:17:24;;;;;;;44.67;24.08;;;18.40;99.90;;;;;;5045228;28;20121;-74
2023/09/10 07:19:49;;;;;;;37.90;22.85;;;18.40;99.90;;;;;;5044804;28;20032;-74
2023/09/10 07:22:15;;;;;;;39.45;22.00;;;18.50;99.90;;;;;;5044895;28;20033;-76
2023/09/10 07:24:41;;;;;;;42.50;25.08;;;18.60;99.90;;;;;;5042456;28;20376;-76
2023/09/10 07:27:06;;;;;;;42.65;23.95;;;18.60;99.90;;;;;;5044430;28;20205;-74
2023/09/10 07:29:32;;;;;;;44.75;26.85;;;18.60;99.90;;;;;;5044385;28;20076;-76
2023/09/10 07:31:58;;;;;;;45.38;24.40;;;18.70;99.90;;;;;;5012409;28;20037;-75
2023/09/10 07:34:23;;;;;;;46.17;26.25;;;18.70;99.90;;;;;;5043906;28;20059;-74
2023/09/10 07:36:49;;;;;;;45.75;24.98;;;18.80;99.90;;;;;;5044656;28;20048;-74
2023/09/10 07:39:17;;;;;;;50.95;26.45;;;18.80;99.90;;;;;;5044430;28;20065;-74
2023/09/10 07:41:43;;;;;;;44.35;26.02;;;18.90;99.90;;;;;;5044710;28;20071;-73
2023/09/10 07:44:08;;;;;;;41.10;25.77;;;19.00;99.90;;;;;;5044199;28;20057;-76
2023/09/10 07:46:34;;;;;;;40.58;24.55;;;19.00;99.90;;;;;;5042388;28;20603;-74
2023/09/10 07:49:00;;;;;;;45.28;25.13;;;19.00;99.90;;;;;;5037160;28;20048;-74
2023/09/10 07:51:26;;;;;;;39.25;24.75;;;19.10;99.90;;;;;;5041426;28;20049;-75
2023/09/10 07:53:51;;;;;;;40.75;25.45;;;19.10;99.90;;;;;;5040869;28;20063;-78
2023/09/10 07:56:17;;;;;;;40.00;23.30;;;19.10;99.90;;;;;;5042327;28;20043;-77
2023/09/10 07:58:43;;;;;;;45.13;24.35;;;19.20;99.90;;;;;;5042748;28;20479;-76
2023/09/10 08:01:11;;;;;;;42.55;25.45;;;19.30;99.90;;;;;;5043136;28;20048;-76
2023/09/10 08:03:38;;;;;;;45.38;24.67;;;19.30;99.90;;;;;;5043742;28;20052;-75
2023/09/10 08:06:04;;;;;;;46.80;25.50;;;19.40;99.90;;;;;;5039913;28;20045;-76
2023/09/10 08:08:30;;;;;;;42.58;24.92;;;19.40;99.90;;;;;;5039696;28;20076;-75
2023/09/10 08:10:56;;;;;;;37.47;22.50;;;19.40;99.90;;;;;;5043716;28;20127;-75
2023/09/10 08:13:21;;;;;;;44.35;26.08;;;19.40;99.90;;;;;;5042420;28;20052;-75
2023/09/10 08:15:47;;;;;;;41.35;24.08;;;19.50;99.90;;;;;;5041143;28;20037;-74
2023/09/10 08:18:13;;;;;;;47.17;26.60;;;19.60;99.90;;;;;;5043467;28;20450;-75
2023/09/10 08:20:40;;;;;;;40.25;25.02;;;19.60;99.90;;;;;;5040117;28;20510;-76
2023/09/10 08:23:07;;;;;;;40.92;24.42;;;19.70;99.90;;;;;;5041922;28;20064;-75
2023/09/10 08:25:33;;;;;;;40.63;23.15;;;19.70;99.90;;;;;;5039735;28;20103;-75
2023/09/10 08:27:59;;;;;;;37.83;23.35;;;19.70;99.90;;;;;;5043611;28;20995;-75
2023/09/10 08:30:25;;;;;;;41.05;22.63;;;19.70;99.90;;;;;;5042074;28;20479;-75
2023/09/10 08:32:51;;;;;;;41.38;25.20;;;19.80;99.90;;;;;;5042258;28;20045;-76
2023/09/10 08:35:21;;;;;;;38.40;22.23;;;19.90;99.90;;;;;;5040459;28;20075;-76
2023/09/10 08:37:47;;;;;;;37.22;24.08;;;20.00;99.90;;;;;;5039882;28;20124;-75
2023/09/10 08:40:15;;;;;;;39.55;24.13;;;20.00;99.90;;;;;;5041801;28;20235;-74
2023/09/10 08:43:03;;;;;;;36.28;21.73;;;20.10;99.90;;;;;;5043462;28;20053;-75
2023/09/10 08:45:29;;;;;;;35.50;23.00;;;20.10;99.90;;;;;;5036780;28;20439;-75
2023/09/10 08:47:57;;;;;;;29.95;19.92;;;20.30;99.90;;;;;;5036791;28;20040;-74
2023/09/10 08:50:23;;;;;;;33.80;21.10;;;20.30;99.90;;;;;;5041381;28;20037;-76
2023/09/10 08:52:50;;;;;;;29.67;19.38;;;20.30;99.90;;;;;;5040284;28;20525;-74
2023/09/10 08:55:16;;;;;;;23.85;18.05;;;20.40;99.90;;;;;;5015530;28;20079;-75
2023/09/10 08:57:43;;;;;;;23.15;15.25;;;20.50;99.90;;;;;;5043468;28;20040;-75
2023/09/10 09:00:12;;;;;;;25.90;15.75;;;20.50;99.90;;;;;;5042895;28;20127;-75
2023/09/10 09:02:47;;;;;;;25.35;16.48;;;20.60;99.90;;;;;;5038379;28;20510;-75
2023/09/10 09:05:13;;;;;;;24.70;16.13;;;20.70;99.90;;;;;;5055669;28;20081;-75
2023/09/10 09:08:10;;;;;;;22.45;14.73;;;20.80;99.90;;;;;;5039794;28;20123;-77
2023/09/10 09:10:35;;;;;;;20.85;14.15;;;20.90;99.90;;;;;;5027059;28;20183;-76
2023/09/10 09:13:05;;;;;;;22.95;16.17;;;20.90;99.90;;;;;;5034989;28;20491;-75
2023/09/10 09:15:32;;;;;;;22.33;14.77;;;20.90;99.90;;;;;;5042563;28;20044;-76
2023/09/10 09:17:59;;;;;;;21.00;13.90;;;21.00;99.90;;;;;;5031164;28;20038;-76
2023/09/10 09:20:26;;;;;;;24.25;14.52;;;21.00;99.90;;;;;;5034380;28;20041;-75
2023/09/10 09:22:59;;;;;;;19.88;13.82;;;21.00;99.90;;;;;;5038081;28;20037;-74
2023/09/10 09:25:26;;;;;;;22.55;14.80;;;21.10;99.90;;;;;;5034407;28;20152;-75
2023/09/10 09:27:54;;;;;;;20.38;14.27;;;21.20;99.90;;;;;;5032206;28;20162;-76
2023/09/10 09:30:20;;;;;;;23.15;15.40;;;21.20;99.90;;;;;;5037337;28;20048;-73
2023/09/10 09:32:46;;;;;;;23.90;15.10;;;21.30;99.90;;;;;;5028170;28;20041;-74
2023/09/10 09:35:13;;;;;;;21.63;15.00;;;21.30;99.90;;;;;;5030772;28;20037;-73
2023/09/10 09:37:40;;;;;;;21.85;14.25;;;21.30;99.90;;;;;;5030067;28;20044;-75
2023/09/10 09:40:09;;;;;;;29.30;14.75;;;21.40;99.90;;;;;;5032191;28;20051;-74
2023/09/10 09:42:36;;;;;;;21.98;14.90;;;21.50;99.90;;;;;;5031365;28;20248;-73
2023/09/10 09:45:02;;;;;;;20.35;14.77;;;21.50;99.90;;;;;;5040897;28;20056;-74
2023/09/10 09:47:30;;;;;;;18.77;13.43;;;21.50;99.90;;;;;;5035731;28;20056;-75
2023/09/10 09:49:56;;;;;;;15.27;12.43;;;21.60;99.90;;;;;;5034941;28;20037;-74
2023/09/10 09:52:22;;;;;;;16.85;12.88;;;21.60;99.90;;;;;;5035571;28;20250;-74
2023/09/10 09:54:48;;;;;;;20.17;13.25;;;21.60;99.90;;;;;;5035366;28;20146;-75
2023/09/10 09:57:15;;;;;;;17.15;12.25;;;21.70;99.90;;;;;;5037837;28;20041;-75
2023/09/10 09:59:40;;;;;;;20.30;11.25;;;21.70;99.90;;;;;;5039284;28;20068;-75
2023/09/10 10:02:13;;;;;;;17.58;11.80;;;21.80;99.90;;;;;;5042935;28;20396;-74
2023/09/10 10:04:40;;;;;;;14.80;11.02;;;21.80;99.90;;;;;;5037127;28;20037;-76
2023/09/10 10:07:06;;;;;;;14.05;11.82;;;21.80;99.90;;;;;;5042583;28;20029;-75
2023/09/10 10:09:36;;;;;;;18.38;13.32;;;21.80;99.90;;;;;;5040202;28;20061;-75
2023/09/10 10:12:03;;;;;;;18.67;12.00;;;21.90;99.90;;;;;;5038801;28;20501;-75
2023/09/10 10:14:31;;;;;;;13.23;10.90;;;21.90;99.90;;;;;;5037581;28;20071;-74
2023/09/10 10:16:59;;;;;;;17.10;12.10;;;22.00;99.90;;;;;;5057243;28;20037;-78
2023/09/10 10:19:25;;;;;;;16.50;9.80;;;22.00;99.90;;;;;;5041398;28;20041;-80
2023/09/10 10:21:52;;;;;;;16.88;11.88;;;22.00;99.90;;;;;;5057487;28;20115;-73
2023/09/10 10:24:19;;;;;;;18.48;12.30;;;22.00;99.90;;;;;;5040016;28;20056;-73
2023/09/10 10:26:46;;;;;;;14.45;10.70;;;22.00;99.90;;;;;;5040328;28;20041;-73
2023/09/10 10:29:12;;;;;;;15.32;11.90;;;22.10;99.90;;;;;;5040183;28;20044;-73
2023/09/10 10:31:41;;;;;;;14.82;10.88;;;22.10;99.90;;;;;;5037463;28;20179;-74
2023/09/10 10:34:22;;;;;;;15.38;11.20;;;22.20;99.90;;;;;;5038735;28;20043;-73
2023/09/10 10:37:05;;;;;;;17.80;11.07;;;22.20;99.90;;;;;;5036405;28;20063;-73
2023/09/10 10:39:40;;;;;;;14.20;11.48;;;22.20;99.90;;;;;;5032662;28;20064;-74
2023/09/10 10:42:10;;;;;;;15.40;10.93;;;22.30;99.90;;;;;;5039818;28;20045;-74
2023/09/10 10:44:37;;;;;;;19.70;12.20;;;22.40;99.90;;;;;;5041082;28;20052;-73
2023/09/10 10:47:10;;;;;;;18.15;11.32;;;22.40;99.90;;;;;;5040758;28;20179;-74
2023/09/10 10:49:38;;;;;;;19.20;11.75;;;22.50;99.90;;;;;;5041165;28;20582;-75
2023/09/10 10:52:06;;;;;;;13.68;10.05;;;22.60;99.90;;;;;;5042350;28;20749;-74
2023/09/10 10:54:34;;;;;;;16.00;10.77;;;22.60;99.90;;;;;;5039497;28;20053;-74
2023/09/10 10:57:03;;;;;;;14.95;10.15;;;22.60;99.90;;;;;;5024001;28;20049;-75
2023/09/10 10:59:29;;;;;;;12.07;10.20;;;22.70;99.90;;;;;;5037230;28;20057;-75
2023/09/10 11:02:23;;;;;;;12.02;10.25;;;22.70;99.90;;;;;;5031548;28;20616;-74
2023/09/10 11:04:54;;;;;;;18.55;10.80;;;22.90;99.90;;;;;;5040164;28;20253;-74
2023/09/10 11:07:22;;;;;;;13.13;9.55;;;22.90;99.90;;;;;;5039716;28;20755;-74
2023/09/10 11:09:47;;;;;;;14.57;10.27;;;22.90;99.90;;;;;;5042798;28;20080;-74
2023/09/10 11:12:14;;;;;;;14.48;10.35;;;22.90;99.90;;;;;;5045149;28;20073;-74
2023/09/10 11:15:03;;;;;;;13.23;9.27;;;22.90;99.90;;;;;;5042921;28;20037;-73
2023/09/10 11:17:32;;;;;;;11.63;9.15;;;23.00;99.90;;;;;;5041334;28;20067;-77
2023/09/10 11:19:58;;;;;;;13.65;8.52;;;23.10;99.90;;;;;;5040930;28;20060;-74
2023/09/10 11:22:24;;;;;;;9.85;8.48;;;23.10;99.90;;;;;;5041219;28;20044;-75
2023/09/10 11:25:09;;;;;;;13.02;8.93;;;23.00;99.90;;;;;;5043104;28;20060;-74
2023/09/10 11:27:35;;;;;;;12.38;8.88;;;23.00;99.90;;;;;;5041580;28;20554;-72
2023/09/10 11:30:08;;;;;;;11.45;8.50;;;23.00;99.90;;;;;;5042237;28;20048;-73
2023/09/10 11:32:34;;;;;;;12.50;8.75;;;23.10;99.90;;;;;;5044397;28;20549;-73
2023/09/10 11:35:17;;;;;;;9.70;8.15;;;23.10;99.90;;;;;;5043893;28;20040;-73
2023/09/10 11:37:49;;;;;;;11.10;8.45;;;23.10;99.90;;;;;;5043774;28;20052;-74
2023/09/10 11:40:16;;;;;;;14.30;8.88;;;23.10;99.90;;;;;;5037801;28;20041;-72
2023/09/10 11:42:49;;;;;;;12.05;8.85;;;23.20;99.90;;;;;;5044136;28;20041;-73
2023/09/10 11:45:15;;;;;;;10.38;8.35;;;23.20;99.90;;;;;;5044123;28;20093;-73
2023/09/10 11:47:42;;;;;;;11.88;8.77;;;23.30;99.90;;;;;;5044617;28;20158;-73
2023/09/10 11:50:09;;;;;;;14.73;9.25;;;23.30;99.90;;;;;;5045221;28;20041;-73
2023/09/10 11:52:35;;;;;;;9.85;8.40;;;23.30;99.90;;;;;;5044701;28;20445;-73
2023/09/10 11:55:03;;;;;;;9.82;8.80;;;23.30;99.90;;;;;;5043775;28;20045;-73
2023/09/10 11:57:29;;;;;;;10.55;8.70;;;23.40;99.90;;;;;;5041557;28;20489;-73
2023/09/10 11:59:55;;;;;;;10.90;8.15;;;23.30;99.90;;;;;;5042878;28;20049;-73
2023/09/10 12:02:21;;;;;;;12.13;7.57;;;23.40;99.90;;;;;;5044355;28;20124;-73
2023/09/10 12:04:47;;;;;;;11.57;8.52;;;23.40;99.90;;;;;;5041322;28;20048;-73
2023/09/10 12:07:13;;;;;;;13.52;8.13;;;23.40;99.90;;;;;;5042703;28;20033;-72
2023/09/10 12:09:39;;;;;;;13.02;8.05;;;23.50;99.90;;;;;;5043711;28;20439;-74
2023/09/10 12:12:11;;;;;;;10.30;7.93;;;23.50;99.90;;;;;;5041566;28;20044;-74
2023/09/10 12:14:37;;;;;;;9.00;7.95;;;23.60;99.90;;;;;;5041521;28;20098;-73
2023/09/10 12:17:04;;;;;;;9.63;7.90;;;23.60;99.90;;;;;;5041718;28;20124;-74
2023/09/10 12:19:31;;;;;;;11.93;8.30;;;23.70;99.90;;;;;;5041010;28;20049;-74
2023/09/10 12:21:57;;;;;;;13.93;7.75;;;23.80;99.90;;;;;;5039337;28;20072;-74
2023/09/10 12:24:23;;;;;;;11.93;7.72;;;23.70;99.90;;;;;;5040446;28;20324;-75
2023/09/10 12:26:48;;;;;;;11.52;9.18;;;23.70;99.90;;;;;;5040007;28;20127;-74
2023/09/10 12:29:14;;;;;;;13.38;9.40;;;23.70;99.90;;;;;;5042669;28;20029;-74